createdAt,value
2019-02-12T00:00:32.330Z,90.1
2019-02-12T00:01:32.229Z,90
2019-02-12T00:02:32.124Z,90.1
2019-02-12T00:03:32.028Z,90.2
2019-02-12T00:04:31.940Z,90.2
2019-02-12T00:05:31.830Z,90.2
2019-02-12T00:06:31.721Z,90.2
2019-02-12T00:07:31.618Z,90.3
2019-02-12T00:08:31.972Z,90.5
2019-02-12T00:09:31.866Z,90.5
2019-02-12T00:10:31.772Z,90.5
2019-02-12T00:11:31.679Z,90.2
2019-02-12T00:12:31.568Z,90
2019-02-12T00:13:31.492Z,89.5
2019-02-12T00:14:31.405Z,89.3
2019-02-12T00:15:31.304Z,88.9
2019-02-12T00:18:31.039Z,88.5
2019-02-12T00:19:30.946Z,89.4
2019-02-12T00:20:30.884Z,89.3
2019-02-12T00:21:30.754Z,89.5
2019-02-12T00:22:30.636Z,89.6
2019-02-12T00:23:30.536Z,89.5
2019-02-12T00:24:30.445Z,89.7
2019-02-12T00:25:30.343Z,89.7
2019-02-12T00:26:30.240Z,89.6
2019-02-12T00:27:30.148Z,89.6
2019-02-12T00:28:30.495Z,89.6
2019-02-12T00:29:30.386Z,89.7
2019-02-12T00:30:30.278Z,89.6
2019-02-12T00:31:30.178Z,89.8
2019-02-12T00:32:30.070Z,90.1
2019-02-12T00:33:29.985Z,89.8
2019-02-12T00:34:29.894Z,89.6
2019-02-12T00:35:29.815Z,89.8
2019-02-12T00:36:29.704Z,90
2019-02-12T00:37:29.601Z,90
2019-02-12T00:38:29.916Z,90.1
2019-02-12T00:39:29.804Z,90.4
2019-02-12T00:40:29.722Z,90.2
2019-02-12T00:41:29.619Z,90.1
2019-02-12T00:42:29.501Z,90.1
2019-02-12T00:43:29.398Z,90.1
2019-02-12T00:44:29.308Z,90.1
2019-02-12T00:45:29.203Z,90.2
2019-02-12T00:46:29.086Z,90.2
2019-02-12T00:47:28.972Z,90.1
2019-02-12T00:48:29.336Z,90.2
2019-02-12T00:49:29.225Z,90
2019-02-12T00:50:29.154Z,90
2019-02-12T00:51:29.038Z,90.1
2019-02-12T00:52:28.925Z,90.2
2019-02-12T00:53:28.815Z,90.1
2019-02-12T00:54:28.700Z,90.1
2019-02-12T00:55:28.599Z,90.2
2019-02-12T00:56:28.492Z,90.2
2019-02-12T00:57:28.430Z,90.3
2019-02-12T00:58:28.743Z,90.2
2019-02-12T00:59:28.627Z,90.2
2019-02-12T01:00:28.518Z,90.2
2019-02-12T01:02:28.176Z,88.6
2019-02-12T01:03:28.148Z,88.2
2019-02-12T01:04:28.055Z,87.8
2019-02-12T01:08:27.627Z,86.9
2019-02-12T01:09:27.520Z,87.5
2019-02-12T01:10:27.409Z,87.8
2019-02-12T01:11:27.349Z,87.6
2019-02-12T01:12:27.251Z,88.2
2019-02-12T01:13:27.163Z,88
2019-02-12T01:14:27.053Z,88.4
2019-02-12T01:15:26.951Z,88.4
2019-02-12T01:16:26.837Z,88.3
2019-02-12T01:17:26.727Z,88.7
2019-02-12T01:18:27.043Z,88.8
2019-02-12T01:19:26.931Z,88.4
2019-02-12T01:20:26.825Z,88.8
2019-02-12T01:21:27.132Z,89
2019-02-12T01:22:27.021Z,88.2
2019-02-12T01:23:26.941Z,87.9
2019-02-12T01:28:26.373Z,86.6
2019-02-12T01:29:26.299Z,87.2
2019-02-12T01:30:26.201Z,87.2
2019-02-12T01:31:26.094Z,87.5
2019-02-12T01:32:26.001Z,87.5
2019-02-12T01:33:25.897Z,87.7
2019-02-12T01:34:25.797Z,87.8
2019-02-12T01:35:25.710Z,88.4
2019-02-12T01:36:25.584Z,88.1
2019-02-12T01:37:25.653Z,88.3
2019-02-12T01:38:25.974Z,88.3
2019-02-12T01:39:25.878Z,88.5
2019-02-12T01:40:25.802Z,88.7
2019-02-12T01:41:25.679Z,88.6
2019-02-12T01:42:25.571Z,88.7
2019-02-12T01:43:25.476Z,89
2019-02-12T01:44:25.379Z,89.2
2019-02-12T01:45:25.421Z,89.1
2019-02-12T01:46:25.319Z,89.2
2019-02-12T01:47:25.241Z,89.6
2019-02-12T01:48:25.747Z,89.8
2019-02-12T01:49:25.641Z,89.6
2019-02-12T01:50:25.553Z,89.4
2019-02-12T01:51:25.461Z,89.5
2019-02-12T01:52:25.357Z,88.5
2019-02-12T01:58:24.373Z,86.7
2019-02-12T01:59:24.285Z,87.6
2019-02-12T02:00:24.185Z,87.6
2019-02-12T02:01:24.069Z,87.4
2019-02-12T02:02:23.944Z,87.7
2019-02-12T02:03:23.846Z,87.8
2019-02-12T02:04:23.730Z,88
2019-02-12T02:05:23.616Z,87.9
2019-02-12T02:06:23.531Z,87.9
2019-02-12T02:07:23.401Z,88.2
2019-02-12T02:08:23.795Z,88.3
2019-02-12T02:09:23.705Z,88.2
2019-02-12T02:10:23.594Z,88.3
2019-02-12T02:11:23.471Z,88.4
2019-02-12T02:12:23.356Z,88.7
2019-02-12T02:13:23.277Z,88.8
2019-02-12T02:14:23.184Z,88.9
2019-02-12T02:15:23.067Z,88.9
2019-02-12T02:16:22.964Z,88.9
2019-02-12T02:17:22.833Z,89.1
2019-02-12T02:18:23.134Z,89
2019-02-12T02:19:23.120Z,89.2
2019-02-12T02:20:23.012Z,88.7
2019-02-12T02:21:22.896Z,89
2019-02-12T02:22:22.784Z,88.8
2019-02-12T02:23:22.664Z,88.7
2019-02-12T02:24:22.552Z,89
2019-02-12T02:25:22.492Z,89
2019-02-12T02:26:22.386Z,89.1
2019-02-12T02:27:22.277Z,89.2
2019-02-12T02:28:22.602Z,89
2019-02-12T02:29:22.492Z,89.3
2019-02-12T02:30:22.411Z,89.4
2019-02-12T02:31:22.312Z,88.5
2019-02-12T02:32:22.300Z,88.1
2019-02-12T02:37:21.191Z,86.2
2019-02-12T02:38:21.525Z,86.3
2019-02-12T02:39:21.421Z,86.9
2019-02-12T02:40:21.405Z,87.1
2019-02-12T02:41:21.280Z,87.1
2019-02-12T02:42:21.192Z,86.7
2019-02-12T02:43:21.095Z,87.3
2019-02-12T02:44:20.976Z,87.3
2019-02-12T02:45:20.886Z,87.5
2019-02-12T02:46:20.776Z,87.7
2019-02-12T02:47:20.696Z,87.3
2019-02-12T02:48:21.045Z,87.4
2019-02-12T02:49:20.929Z,87.8
2019-02-12T02:50:20.838Z,87.7
2019-02-12T02:51:20.758Z,88.1
2019-02-12T02:52:20.649Z,88.3
2019-02-12T02:53:20.543Z,88.1
2019-02-12T02:54:20.452Z,88.3
2019-02-12T02:55:20.353Z,88.2
2019-02-12T02:56:20.257Z,88.5
2019-02-12T02:57:20.202Z,88.4
2019-02-12T02:58:20.548Z,88.6
2019-02-12T02:59:20.450Z,88.4
2019-02-12T03:00:20.340Z,88.8
2019-02-12T03:01:20.216Z,88.2
2019-02-12T03:02:20.126Z,87.7
2019-02-12T03:04:19.804Z,86.6
2019-02-12T03:07:19.119Z,86.5
2019-02-12T03:08:19.465Z,86.2
2019-02-12T03:09:19.336Z,86.5
2019-02-12T03:10:19.227Z,86.7
2019-02-12T03:11:19.165Z,87
2019-02-12T03:12:19.063Z,87
2019-02-12T03:13:19.020Z,86.7
2019-02-12T03:14:18.930Z,87
2019-02-12T03:15:18.845Z,87.3
2019-02-12T03:16:18.764Z,87.6
2019-02-12T03:17:18.662Z,87.4
2019-02-12T03:18:19.078Z,87
2019-02-12T03:19:18.983Z,87.8
2019-02-12T03:20:18.881Z,88
2019-02-12T03:21:18.764Z,87.7
2019-02-12T03:22:18.658Z,88.1
2019-02-12T03:23:18.586Z,88.2
2019-02-12T03:24:18.489Z,88.2
2019-02-12T03:25:18.439Z,88.1
2019-02-12T03:26:18.337Z,88.2
2019-02-12T03:27:18.210Z,88.5
2019-02-12T03:28:18.504Z,88.2
2019-02-12T03:29:18.396Z,88.4
2019-02-12T03:30:18.325Z,88.2
2019-02-12T03:31:18.258Z,88.4
2019-02-12T03:32:18.168Z,88.5
2019-02-12T03:33:18.088Z,88.7
2019-02-12T03:34:18.005Z,88.7
2019-02-12T03:35:17.938Z,88.7
2019-02-12T03:36:17.861Z,88.9
2019-02-12T03:37:17.761Z,88.7
2019-02-12T03:38:18.071Z,89.1
2019-02-12T03:39:17.958Z,89.2
2019-02-12T03:40:17.939Z,89.3
2019-02-12T03:41:17.835Z,88.4
2019-02-12T03:48:16.554Z,85.6
2019-02-12T03:49:16.433Z,85.7
2019-02-12T03:50:16.340Z,85.3
2019-02-12T03:55:15.193Z,84.9
2019-02-12T03:57:14.870Z,84.7
2019-02-12T03:58:15.192Z,84.8
2019-02-12T03:59:15.091Z,85.5
2019-02-12T04:00:15.067Z,85.7
2019-02-12T04:01:14.973Z,85.7
2019-02-12T04:02:14.869Z,85.5
2019-02-12T04:03:14.754Z,85.8
2019-02-12T04:04:14.655Z,86.1
2019-02-12T04:05:14.535Z,86.3
2019-02-12T04:06:14.437Z,85.7
2019-02-12T04:07:14.332Z,85.7
2019-02-12T04:08:14.703Z,86.1
2019-02-12T04:09:14.613Z,86
2019-02-12T04:10:14.499Z,86
2019-02-12T04:11:14.461Z,86.2
2019-02-12T04:12:14.374Z,86.3
2019-02-12T04:13:14.301Z,86.8
2019-02-12T04:14:14.213Z,86.7
2019-02-12T04:15:14.112Z,86.7
2019-02-12T04:16:13.994Z,86.9
2019-02-12T04:17:13.923Z,86.6
2019-02-12T04:18:14.230Z,87
2019-02-12T04:19:14.146Z,87
2019-02-12T04:20:14.044Z,87.1
2019-02-12T04:24:23.273Z,85.4
2019-02-12T04:26:22.917Z,84.5
2019-02-12T04:30:25.205Z,83.9
2019-02-12T04:32:24.869Z,83.6
2019-02-12T04:37:23.685Z,82.9
2019-02-12T04:38:24.019Z,83.3
2019-02-12T04:39:23.949Z,84.3
2019-02-12T04:40:23.851Z,84.4
2019-02-12T04:41:23.775Z,84.5
2019-02-12T04:42:23.663Z,84.8
2019-02-12T04:43:23.572Z,85.2
2019-02-12T04:44:23.448Z,86.2
2019-02-12T04:45:23.381Z,85.5
2019-02-12T04:46:23.299Z,85.9
2019-02-12T04:47:23.175Z,86.1
2019-02-12T04:48:23.484Z,86.1
2019-02-12T04:49:23.373Z,86.4
2019-02-12T04:50:23.275Z,86.5
2019-02-12T04:51:23.188Z,86.7
2019-02-12T04:52:32.816Z,86.9
2019-02-12T04:53:32.724Z,87.2
2019-02-12T04:54:32.621Z,87
2019-02-12T04:55:32.511Z,87.3
2019-02-12T04:56:32.456Z,87.3
2019-02-12T04:57:32.384Z,87.7
2019-02-12T04:58:32.751Z,87.8
2019-02-12T04:59:32.687Z,87.9
2019-02-12T05:00:32.563Z,88
2019-02-12T05:04:31.674Z,85.8
2019-02-12T05:08:31.283Z,85.1
2019-02-12T05:09:31.174Z,85.8
2019-02-12T05:10:31.101Z,86
2019-02-12T05:11:31.001Z,86
2019-02-12T05:12:30.906Z,86.1
2019-02-12T05:13:30.804Z,86.1
2019-02-12T05:14:30.695Z,86.2
2019-02-12T05:15:30.592Z,86.3
2019-02-12T05:16:30.517Z,86.7
2019-02-12T05:17:30.403Z,86.7
2019-02-12T05:18:30.727Z,86.8
2019-02-12T05:19:30.617Z,87
2019-02-12T05:20:30.550Z,87.6
2019-02-12T05:21:30.490Z,86.8
2019-02-12T05:22:30.383Z,86.9
2019-02-12T05:23:30.296Z,86.2
2019-02-12T05:24:30.187Z,86.9
2019-02-12T05:25:30.095Z,87.5
2019-02-12T05:26:29.997Z,87.9
2019-02-12T05:27:29.891Z,87.9
2019-02-12T05:28:30.282Z,87.8
2019-02-12T05:29:30.209Z,87.8
2019-02-12T05:30:30.157Z,88
2019-02-12T05:31:30.059Z,88.1
2019-02-12T05:32:29.991Z,87.9
2019-02-12T05:33:29.894Z,88.1
2019-02-12T05:34:29.782Z,87.9
2019-02-12T05:35:29.696Z,88.1
2019-02-12T05:36:29.631Z,88.1
2019-02-12T05:37:29.542Z,88
2019-02-12T05:38:29.892Z,88.1
2019-02-12T05:39:29.809Z,88.4
2019-02-12T05:40:29.730Z,88.1
2019-02-12T05:47:28.106Z,84.5
2019-02-12T05:48:28.539Z,84.5
2019-02-12T05:49:28.454Z,85.1
2019-02-12T05:50:28.352Z,85.4
2019-02-12T05:51:28.296Z,85.9
2019-02-12T05:52:28.208Z,85.8
2019-02-12T05:53:28.112Z,86
2019-02-12T05:54:28.087Z,86.1
2019-02-12T05:55:28.021Z,86.1
2019-02-12T05:56:27.955Z,86.4
2019-02-12T05:57:28.167Z,86.7
2019-02-12T05:58:28.485Z,86.8
2019-02-12T05:59:28.381Z,86.8
2019-02-12T06:00:28.293Z,87.3
2019-02-12T06:01:28.186Z,87.4
2019-02-12T06:02:28.101Z,87.2
2019-02-12T06:03:27.993Z,87.4
2019-02-12T06:04:27.883Z,87.7
2019-02-12T06:05:27.772Z,87.5
2019-02-12T06:06:27.757Z,87.5
2019-02-12T06:07:27.663Z,87.6
2019-02-12T06:08:28.141Z,87.3
2019-02-12T06:09:28.039Z,88.1
2019-02-12T06:10:28.023Z,88.3
2019-02-12T06:11:28.262Z,88.3
2019-02-12T06:12:28.234Z,88.4
2019-02-12T06:13:28.111Z,88.7
2019-02-12T06:14:28.080Z,88.8
2019-02-12T06:15:27.996Z,89
2019-02-12T06:16:27.924Z,89
2019-02-12T06:17:27.870Z,89.3
2019-02-12T06:18:28.216Z,89.2
2019-02-12T06:19:28.104Z,89.1
2019-02-12T06:20:28.042Z,89.6
2019-02-12T06:21:27.944Z,89.5
2019-02-12T06:22:27.857Z,89.4
2019-02-12T06:23:27.767Z,89.7
2019-02-12T06:24:27.667Z,89.8
2019-02-12T06:25:27.656Z,90
2019-02-12T06:26:27.616Z,90
2019-02-12T06:27:27.511Z,90.1
2019-02-12T06:28:27.891Z,90.1
2019-02-12T06:29:27.792Z,90.1
2019-02-12T06:30:27.694Z,90.1
2019-02-12T06:31:27.619Z,90
2019-02-12T06:32:27.511Z,90.1
2019-02-12T06:33:27.421Z,90
2019-02-12T06:34:27.336Z,90.1
2019-02-12T06:35:27.275Z,90
2019-02-12T06:36:27.189Z,90.1
2019-02-12T06:37:27.078Z,90.2
2019-02-12T06:38:27.409Z,90.3
2019-02-12T06:39:27.297Z,90.1
2019-02-12T06:42:26.738Z,89
2019-02-12T06:48:26.355Z,87
2019-02-12T06:49:26.259Z,88
2019-02-12T06:50:26.145Z,88.3
2019-02-12T06:51:26.058Z,88.5
2019-02-12T06:52:25.949Z,88.7
2019-02-12T06:53:25.826Z,88.7
2019-02-12T06:54:25.725Z,88.8
2019-02-12T06:55:25.643Z,88.9
2019-02-12T06:56:25.523Z,89
2019-02-12T06:57:25.610Z,89.2
2019-02-12T06:58:25.915Z,89.5
2019-02-12T06:59:25.820Z,89.6
2019-02-12T07:00:25.739Z,89.8
2019-02-12T07:01:25.667Z,89.8
2019-02-12T07:02:25.625Z,89.7
2019-02-12T07:03:25.539Z,89.8
2019-02-12T07:04:25.477Z,89.6
2019-02-12T07:05:25.357Z,89.9
2019-02-12T07:06:25.235Z,90
2019-02-12T07:07:25.133Z,89.9
2019-02-12T07:08:26.498Z,89.9
2019-02-12T07:09:26.410Z,90
2019-02-12T07:10:26.296Z,89.8
2019-02-12T07:11:26.186Z,90
2019-02-12T07:12:26.082Z,90.1
2019-02-12T07:13:26.000Z,90
2019-02-12T07:14:25.902Z,90
2019-02-12T07:15:25.797Z,90
2019-02-12T07:16:25.715Z,90.1
2019-02-12T07:17:25.672Z,90.1
2019-02-12T07:18:26.018Z,90.1
2019-02-12T07:19:25.933Z,90.2
2019-02-12T07:20:25.878Z,90.1
2019-02-12T07:21:25.793Z,89.6
2019-02-12T07:27:24.480Z,87.4
2019-02-12T07:28:24.812Z,87.4
2019-02-12T07:29:24.739Z,88
2019-02-12T07:30:24.743Z,88.1
2019-02-12T07:31:24.682Z,88.2
2019-02-12T07:32:24.562Z,88.4
2019-02-12T07:33:24.503Z,88.1
2019-02-12T07:34:24.514Z,88.1
2019-02-12T07:35:24.429Z,88.3
2019-02-12T07:36:24.362Z,88.5
2019-02-12T07:37:24.280Z,88.3
2019-02-12T07:38:24.576Z,88.5
2019-02-12T07:39:24.461Z,88.6
2019-02-12T07:40:24.386Z,88.6
2019-02-12T07:41:24.273Z,88.5
2019-02-12T07:42:24.205Z,88.6
2019-02-12T07:43:26.714Z,88.3
2019-02-12T07:44:26.681Z,88.5
2019-02-12T07:45:26.581Z,88.7
2019-02-12T07:46:26.522Z,88.9
2019-02-12T07:47:26.416Z,88.9
2019-02-12T07:48:26.776Z,89
2019-02-12T07:49:26.692Z,89
2019-02-12T07:50:26.606Z,89.1
2019-02-12T07:51:26.502Z,89.4
2019-02-12T07:52:26.430Z,89.5
2019-02-12T07:53:32.112Z,89.8
2019-02-12T07:54:32.024Z,90
2019-02-12T07:55:31.966Z,90.1
2019-02-12T07:56:31.857Z,90.1
2019-02-12T07:57:31.794Z,90.2
2019-02-12T07:58:32.112Z,90.3
2019-02-12T07:59:32.067Z,90.4
2019-02-12T08:00:31.977Z,90.7
2019-02-12T08:01:31.944Z,90.3
2019-02-12T08:02:34.290Z,90.5
2019-02-12T08:03:34.201Z,90.7
2019-02-12T08:04:34.132Z,90.8
2019-02-12T08:05:34.052Z,90.8
2019-02-12T08:06:34.030Z,90.9
2019-02-12T08:07:33.956Z,90.9
2019-02-12T08:08:34.310Z,90.9
2019-02-12T08:09:34.210Z,90.9
2019-02-12T08:10:34.112Z,90.9
2019-02-12T08:11:34.006Z,91
2019-02-12T08:12:33.964Z,91
2019-02-12T08:13:33.928Z,91
2019-02-12T08:14:33.889Z,91.1
2019-02-12T08:15:33.788Z,91.1
2019-02-12T08:16:33.690Z,91
2019-02-12T08:17:33.605Z,91.2
2019-02-12T08:18:33.958Z,91.2
2019-02-12T08:19:33.886Z,91.3
2019-02-12T08:20:33.800Z,91.3
2019-02-12T08:21:33.683Z,91.1
2019-02-12T08:22:33.592Z,91.1
2019-02-12T08:23:42.194Z,91.2
2019-02-12T08:24:42.180Z,91.2
2019-02-12T08:25:42.092Z,91.3
2019-02-12T08:26:42.034Z,91.2
2019-02-12T08:27:41.949Z,91.2
2019-02-12T08:28:42.384Z,91.1
2019-02-12T08:29:42.337Z,91.1
2019-02-12T08:30:42.275Z,91.1
2019-02-12T08:31:42.221Z,91
2019-02-12T08:32:42.162Z,91.1
2019-02-12T08:33:42.070Z,91.2
2019-02-12T08:34:42.178Z,91.2
2019-02-12T08:35:42.098Z,91.2
2019-02-12T08:36:42.056Z,91.1
2019-02-12T08:37:42.096Z,91.1
2019-02-12T08:38:42.432Z,91.3
2019-02-12T08:39:42.342Z,91
2019-02-12T08:40:42.266Z,90.8
2019-02-12T08:41:42.173Z,90.4
2019-02-12T08:45:42.974Z,88.8
2019-02-12T08:48:42.914Z,88.4
2019-02-12T08:49:42.899Z,88.3
2019-02-12T08:50:42.828Z,88.2
2019-02-12T08:51:42.728Z,87.7
2019-02-12T08:53:51.322Z,87.2
2019-02-12T08:55:51.069Z,86.3
2019-02-12T08:56:51.067Z,86.8
2019-02-12T08:58:51.204Z,87
2019-02-12T08:59:51.234Z,87.8
2019-02-12T09:00:51.334Z,87.7
2019-02-12T09:01:51.332Z,88
2019-02-12T09:02:51.268Z,88.2
2019-02-12T09:03:51.219Z,88.1
2019-02-12T09:04:51.138Z,88.2
2019-02-12T09:05:51.090Z,88.9
2019-02-12T09:06:51.102Z,89.2
2019-02-12T09:07:50.992Z,89
2019-02-12T09:08:51.426Z,89
2019-02-12T09:09:51.388Z,89.7
2019-02-12T09:10:51.288Z,90.1
2019-02-12T09:11:51.180Z,90.2
2019-02-12T09:12:51.096Z,90.2
2019-02-12T09:13:51.026Z,90.3
2019-02-12T09:14:50.952Z,90.4
2019-02-12T09:15:50.872Z,90.3
2019-02-12T09:16:50.792Z,90.3
2019-02-12T09:17:50.786Z,90.3
2019-02-12T09:18:51.111Z,90.3
2019-02-12T09:19:50.980Z,90
2019-02-12T09:20:50.894Z,90
2019-02-12T09:21:50.790Z,90
2019-02-12T09:22:50.718Z,89.8
2019-02-12T09:24:03.630Z,89.6
2019-02-12T09:25:03.642Z,88.2
2019-02-12T09:26:03.562Z,88.5
2019-02-12T09:27:03.460Z,88.9
2019-02-12T09:28:03.358Z,89.4
2019-02-12T09:29:03.682Z,89.2
2019-02-12T09:30:03.618Z,89.2
2019-02-12T09:31:03.574Z,88.6
2019-02-12T09:32:03.510Z,88.3
2019-02-12T09:33:03.460Z,87.4
2019-02-12T09:35:03.090Z,86.1
2019-02-12T09:36:03.298Z,85.3
2019-02-12T09:39:03.268Z,85.7
2019-02-12T09:40:03.163Z,86.1
2019-02-12T09:41:03.058Z,86.1
2019-02-12T09:42:02.979Z,86.3
2019-02-12T09:43:02.904Z,86.3
2019-02-12T09:44:02.808Z,86.5
2019-02-12T09:45:02.707Z,86.3
2019-02-12T09:46:02.612Z,86
2019-02-12T09:47:02.558Z,86.4
2019-02-12T09:48:02.460Z,86.1
2019-02-12T09:49:02.814Z,87
2019-02-12T09:50:02.720Z,86.6
2019-02-12T09:51:02.755Z,86.5
2019-02-12T09:52:02.686Z,86.5
2019-02-12T09:53:02.613Z,86.2
2019-02-12T09:54:09.610Z,85.8
2019-02-12T09:55:09.512Z,86.1
2019-02-12T09:56:09.440Z,86.2
2019-02-12T09:57:09.353Z,86.3
2019-02-12T09:58:09.263Z,86.3
2019-02-12T09:59:09.819Z,86.6
2019-02-12T10:00:09.771Z,86.4
2019-02-12T10:01:10.751Z,86.8
2019-02-12T10:02:10.658Z,87
2019-02-12T10:03:10.545Z,86.5
2019-02-12T10:04:10.544Z,86.1
2019-02-12T10:05:10.462Z,86.2
2019-02-12T10:06:10.375Z,86.8
2019-02-12T10:07:10.328Z,86.3
2019-02-12T10:08:10.236Z,86.3
2019-02-12T10:09:10.576Z,86.6
2019-02-12T10:10:10.513Z,86.4
2019-02-12T10:11:10.413Z,85.9
2019-02-12T10:12:10.302Z,86.6
2019-02-12T10:13:10.206Z,86.1
2019-02-12T10:14:10.114Z,85.6
2019-02-12T10:15:10.014Z,85
2019-02-12T10:18:09.509Z,83.2
2019-02-12T10:19:09.887Z,83.5
2019-02-12T10:22:09.297Z,83.2
2019-02-12T10:23:09.209Z,83.4
2019-02-12T10:24:20.208Z,83.2
2019-02-12T10:25:20.100Z,82.6
2019-02-12T10:26:20.041Z,82.3
2019-02-12T10:27:19.966Z,83
2019-02-12T10:28:19.872Z,82.3
2019-02-12T10:29:20.308Z,82.9
2019-02-12T10:30:20.201Z,82.5
2019-02-12T10:31:20.134Z,83.4
2019-02-12T10:32:20.027Z,80.8
2019-02-12T10:33:19.965Z,81.8
2019-02-12T10:34:19.884Z,82.3
2019-02-12T10:35:19.842Z,83.4
2019-02-12T10:36:19.764Z,83.9
2019-02-12T10:37:19.667Z,84
2019-02-12T10:38:19.573Z,82.8
2019-02-12T10:39:19.943Z,83
2019-02-12T10:40:19.939Z,83.4
2019-02-12T10:41:19.860Z,82.7
2019-02-12T10:42:19.757Z,82.4
2019-02-12T10:43:19.658Z,82.8
2019-02-12T10:44:19.571Z,80.7
2019-02-12T10:45:19.470Z,80.5
2019-02-12T10:46:19.412Z,81.2
2019-02-12T10:47:19.306Z,83
2019-02-12T10:48:19.204Z,83.5
2019-02-12T10:49:19.554Z,83.4
2019-02-12T10:50:19.495Z,84.7
2019-02-12T10:51:19.391Z,85.5
2019-02-12T10:52:19.270Z,85.3
2019-02-12T10:53:19.162Z,84.8
2019-02-12T10:54:27.843Z,84.7
2019-02-12T10:55:28.316Z,84.5
2019-02-12T10:56:28.202Z,84.7
2019-02-12T10:57:28.099Z,84.5
2019-02-12T10:58:28.056Z,84.4
2019-02-12T10:59:28.463Z,84
2019-02-12T11:00:28.378Z,83.3
2019-02-12T11:01:28.272Z,83.8
2019-02-12T11:02:28.204Z,84
2019-02-12T11:03:28.112Z,84.5
2019-02-12T11:04:28.027Z,84.6
2019-02-12T11:05:27.953Z,84.6
2019-02-12T11:06:27.849Z,84.8
2019-02-12T11:07:27.729Z,84.6
2019-02-12T11:08:27.634Z,84.7
2019-02-12T11:09:27.965Z,84.4
2019-02-12T11:10:27.867Z,84.5
2019-02-12T11:11:27.774Z,84.1
2019-02-12T11:12:27.656Z,84.3
2019-02-12T11:13:27.545Z,84.7
2019-02-12T11:14:27.434Z,84.9
2019-02-12T11:15:27.314Z,84.5
2019-02-12T11:16:27.229Z,84.9
2019-02-12T11:17:27.135Z,85.2
2019-02-12T11:18:27.013Z,84.7
2019-02-12T11:19:27.354Z,84.3
2019-02-12T11:20:27.247Z,85.1
2019-02-12T11:21:27.165Z,85.4
2019-02-12T11:22:27.047Z,85.4
2019-02-12T11:23:26.947Z,83.8
2019-02-12T11:24:26.846Z,83.6
2019-02-12T11:25:26.745Z,83.5
2019-02-12T11:28:26.118Z,83.4
2019-02-12T11:29:26.458Z,83
2019-02-12T11:30:26.352Z,83.8
2019-02-12T11:31:26.250Z,84.1
2019-02-12T11:32:26.129Z,83.2
2019-02-12T11:33:26.017Z,83.9
2019-02-12T11:34:25.922Z,83.8
2019-02-12T11:35:25.819Z,83.7
2019-02-12T11:36:25.760Z,84
2019-02-12T11:37:25.661Z,84.7
2019-02-12T11:38:25.551Z,84.7
2019-02-12T11:39:25.916Z,83.5
2019-02-12T11:40:25.812Z,84.8
2019-02-12T11:41:25.710Z,84
2019-02-12T11:42:25.633Z,84.1
2019-02-12T11:43:25.513Z,85
2019-02-12T11:44:25.415Z,84.6
2019-02-12T11:45:25.298Z,84.3
2019-02-12T11:46:25.187Z,84.3
2019-02-12T11:47:25.089Z,84.2
2019-02-12T11:48:24.984Z,84.9
2019-02-12T11:49:25.330Z,84.7
2019-02-12T11:50:25.239Z,84.9
2019-02-12T11:51:25.127Z,85.1
2019-02-12T11:52:25.009Z,85.2
2019-02-12T11:53:24.928Z,84.9
2019-02-12T11:54:24.823Z,85.5
2019-02-12T11:55:24.719Z,84.9
2019-02-12T11:56:24.611Z,84.1
2019-02-12T11:57:24.504Z,84.5
2019-02-12T11:58:24.417Z,84.8
2019-02-12T11:59:24.717Z,84.3
2019-02-12T12:00:24.615Z,83.3
2019-02-12T12:01:24.497Z,83.4
2019-02-12T12:02:24.383Z,83.9
2019-02-12T12:03:24.297Z,83.8
2019-02-12T12:04:24.182Z,84.5
2019-02-12T12:05:24.087Z,84.4
2019-02-12T12:06:23.965Z,83.8
2019-02-12T12:07:23.855Z,83.7
2019-02-12T12:08:23.780Z,83.7
2019-02-12T12:09:24.099Z,83.6
2019-02-12T12:10:23.985Z,82.8
2019-02-12T12:11:23.872Z,83.8
2019-02-12T12:12:23.777Z,83.7
2019-02-12T12:13:23.673Z,83.9
2019-02-12T12:14:23.594Z,83.5
2019-02-12T12:15:23.491Z,83.6
2019-02-12T12:16:23.449Z,83.9
2019-02-12T12:17:23.334Z,84.3
2019-02-12T12:18:23.219Z,84.3
2019-02-12T12:19:23.571Z,84
2019-02-12T12:20:23.459Z,83.7
2019-02-12T12:21:23.368Z,83
2019-02-12T12:22:23.263Z,83.5
2019-02-12T12:23:23.161Z,83
2019-02-12T12:24:23.076Z,83.8
2019-02-12T12:25:22.973Z,82.7
2019-02-12T12:26:22.867Z,82.2
2019-02-12T12:27:22.772Z,83.2
2019-02-12T12:28:22.669Z,82.7
2019-02-12T12:29:23.033Z,82.8
2019-02-12T12:30:22.921Z,83.2
2019-02-12T12:31:22.825Z,83.7
2019-02-12T12:32:22.723Z,83.6
2019-02-12T12:33:22.607Z,83
2019-02-12T12:34:22.497Z,81.8
2019-02-12T12:35:22.417Z,82
2019-02-12T12:36:22.352Z,82.7
2019-02-12T12:37:22.245Z,83.1
2019-02-12T12:38:22.159Z,82.8
2019-02-12T12:39:22.499Z,82.4
2019-02-12T12:40:22.407Z,82.2
2019-02-12T12:41:22.288Z,81.4
2019-02-12T12:42:22.173Z,81.2
2019-02-12T12:43:22.086Z,82
2019-02-12T12:44:22.029Z,80.9
2019-02-12T12:45:21.920Z,80.6
2019-02-12T12:46:21.805Z,80.8
2019-02-12T12:48:21.471Z,80.5
2019-02-12T12:49:21.890Z,80.3
2019-02-12T12:50:21.795Z,81.5
2019-02-12T12:51:21.757Z,81.6
2019-02-12T12:52:21.705Z,81.9
2019-02-12T12:53:21.671Z,81.7
2019-02-12T12:54:21.565Z,81.3
2019-02-12T12:55:21.463Z,81.3
2019-02-12T12:56:21.393Z,81.3
2019-02-12T12:57:21.383Z,81.4
2019-02-12T12:58:21.295Z,81.1
2019-02-12T12:59:21.625Z,81.5
2019-02-12T13:00:21.521Z,81.6
2019-02-12T13:01:21.426Z,81.7
2019-02-12T13:02:21.422Z,81.6
2019-02-12T13:03:21.329Z,81.5
2019-02-12T13:04:21.223Z,80.9
2019-02-12T13:05:21.142Z,80.6
2019-02-12T13:06:21.042Z,80.7
2019-02-12T13:07:21.000Z,81.4
2019-02-12T13:08:20.905Z,80.8
2019-02-12T13:09:21.233Z,80.3
2019-02-12T13:10:21.124Z,80.7
2019-02-12T13:11:21.017Z,80.7
2019-02-12T13:12:20.931Z,80.6
2019-02-12T13:13:20.813Z,80.9
2019-02-12T13:14:20.703Z,81.5
2019-02-12T13:15:20.605Z,82
2019-02-12T13:16:20.499Z,81.5
2019-02-12T13:17:20.387Z,81
2019-02-12T13:18:20.289Z,81.9
2019-02-12T13:19:20.597Z,81.5
2019-02-12T13:20:20.490Z,81.8
2019-02-12T13:21:20.395Z,81.5
2019-02-12T13:22:20.280Z,81.4
2019-02-12T13:23:20.196Z,81.6
2019-02-12T13:24:20.082Z,81.4
2019-02-12T13:25:19.991Z,81.9
2019-02-12T13:26:19.897Z,81.3
2019-02-12T13:27:19.832Z,81.7
2019-02-12T13:28:19.754Z,81.1
2019-02-12T13:29:20.121Z,81.3
2019-02-12T13:30:20.057Z,81.2
2019-02-12T13:31:19.945Z,81.5
2019-02-12T13:32:19.812Z,81
2019-02-12T13:33:19.708Z,80.7
2019-02-12T13:34:19.615Z,81
2019-02-12T13:35:19.495Z,80.6
2019-02-12T13:36:19.402Z,80.3
2019-02-12T13:37:19.310Z,81.5
2019-02-12T13:38:19.218Z,81.7
2019-02-12T13:39:19.567Z,81.8
2019-02-12T13:40:19.471Z,81.5
2019-02-12T13:41:19.364Z,81.1
2019-02-12T13:42:19.257Z,81
2019-02-12T13:43:19.160Z,80.5
2019-02-12T13:44:19.099Z,80.3
2019-02-12T13:45:19.003Z,80.4
2019-02-12T13:46:18.901Z,80.4
2019-02-12T13:47:18.816Z,80.4
2019-02-12T13:48:18.722Z,80.3
2019-02-12T13:49:19.022Z,80.1
2019-02-12T13:50:18.942Z,79.9
2019-02-12T13:51:18.832Z,79.9
2019-02-12T13:52:18.735Z,79.2
2019-02-12T13:53:18.617Z,79.3
2019-02-12T13:54:18.525Z,79.4
2019-02-12T13:55:18.584Z,79.2
2019-02-12T13:56:18.464Z,79.7
2019-02-12T13:57:18.365Z,79.9
2019-02-12T13:58:18.262Z,79.9
2019-02-12T13:59:18.603Z,80.1
2019-02-12T14:00:18.532Z,79.8
2019-02-12T14:01:18.447Z,78.2
2019-02-12T14:02:18.327Z,79.2
2019-02-12T14:03:23.675Z,79.6
2019-02-12T14:04:23.992Z,79.2
2019-02-12T14:05:24.026Z,79.5
2019-02-12T14:06:24.243Z,80
2019-02-12T14:07:24.258Z,79.2
2019-02-12T14:08:24.145Z,78.3
2019-02-12T14:09:24.494Z,78.9
2019-02-12T14:10:24.438Z,78.3
2019-02-12T14:11:24.409Z,78.1
2019-02-12T14:12:24.306Z,78.1
2019-02-12T14:13:24.200Z,78.1
2019-02-12T14:14:24.097Z,77.8
2019-02-12T14:15:23.990Z,78.2
2019-02-12T14:16:23.902Z,78.1
2019-02-12T14:17:23.779Z,78.1
2019-02-12T14:18:23.682Z,78.3
2019-02-12T14:19:24.023Z,77.6
2019-02-12T14:20:23.904Z,78.3
2019-02-12T14:21:23.800Z,77.9
2019-02-12T14:22:23.736Z,77.3
2019-02-12T14:23:23.650Z,77.6
2019-02-12T14:24:23.560Z,77.9
2019-02-12T14:25:26.580Z,78.2
2019-02-12T14:26:26.474Z,78.2
2019-02-12T14:27:26.388Z,76.9
2019-02-12T14:28:26.282Z,77.5
2019-02-12T14:29:26.591Z,76.8
2019-02-12T14:30:26.496Z,77
2019-02-12T14:31:26.447Z,76.3
2019-02-12T14:32:26.390Z,76.9
2019-02-12T14:33:26.306Z,76.3
2019-02-12T14:34:26.192Z,77
2019-02-12T14:35:26.104Z,76.2
2019-02-12T14:36:26.014Z,76.1
2019-02-12T14:38:25.766Z,75.4
2019-02-12T14:39:26.086Z,75.8
2019-02-12T14:40:26.015Z,76.6
2019-02-12T14:41:25.922Z,76.6
2019-02-12T14:42:25.833Z,76.5
2019-02-12T14:43:25.740Z,76.6
2019-02-12T14:44:25.624Z,76.2
2019-02-12T14:45:25.520Z,76.2
2019-02-12T14:46:25.427Z,76.1
2019-02-12T14:47:25.532Z,76.1
2019-02-12T14:48:25.444Z,76.1
2019-02-12T14:49:25.742Z,76
2019-02-12T14:50:25.630Z,75.2
2019-02-12T14:51:25.534Z,75.5
2019-02-12T14:52:25.428Z,74.1
2019-02-12T14:53:25.312Z,74